Time;durP1;ratioP1;P1;durP2;ratioP2;P2;SDS_P1;SDS_P2;PMS_P1;PMS_P2;Temp;Humidity;BMP_temperature;BMP_pressure;BME280_temperature;BME280_humidity;BME280_pressure;Samples;Min_cycle;Max_cycle;Signal;HPM_P1;HPM_P2
2021/03/06 00:01:23;;;;;;;16.63;5.07;;;;;;;-1.30;75.87;103361.09;5259966;28;20033;-68
2021/03/06 00:03:54;;;;;;;9.30;4.47;;;;;;;-1.34;75.40;103360.22;5247029;28;20543;-68
2021/03/06 00:06:25;;;;;;;9.70;4.28;;;;;;;-1.25;75.89;103350.00;5260977;28;20154;-68
2021/03/06 00:08:56;;;;;;;9.23;4.45;;;;;;;-1.20;75.80;103359.44;5259509;28;20090;-67
2021/03/06 00:11:28;;;;;;;9.82;5.32;;;;;;;-1.28;75.75;103357.69;5260950;28;20025;-68
2021/03/06 00:13:59;;;;;;;10.38;4.65;;;;;;;-1.33;75.95;103356.78;5260811;28;20029;-68
2021/03/06 00:16:30;;;;;;;8.02;4.22;;;;;;;-1.35;76.20;103357.66;5260010;28;20028;-68
2021/03/06 00:19:01;;;;;;;10.63;4.63;;;;;;;-1.40;75.65;103351.63;5258363;28;20481;-68
2021/03/06 00:21:33;;;;;;;9.73;4.82;;;;;;;-1.39;76.17;103356.78;5260312;28;20417;-67
2021/03/06 00:24:05;;;;;;;11.80;5.05;;;;;;;-1.38;76.36;103358.50;5260551;28;20500;-67
2021/03/06 00:26:36;;;;;;;13.45;4.97;;;;;;;-1.39;76.95;103356.78;5262745;28;20093;-68
2021/03/06 00:29:08;;;;;;;11.80;4.90;;;;;;;-1.40;76.47;103355.06;5260158;28;20146;-67
2021/03/06 00:31:40;;;;;;;13.05;5.10;;;;;;;-1.29;76.60;103361.13;5257671;28;20039;-67
2021/03/06 00:34:11;;;;;;;10.32;5.82;;;;;;;-1.37;77.19;103357.63;5261707;28;20040;-67
2021/03/06 00:36:43;;;;;;;9.38;4.53;;;;;;;-1.43;76.27;103357.63;5258204;28;20020;-68
2021/03/06 00:39:14;;;;;;;7.85;4.60;;;;;;;-1.40;76.33;103360.22;5260793;28;20359;-68
2021/03/06 00:41:45;;;;;;;12.55;5.03;;;;;;;-1.39;76.94;103361.94;5262707;28;20105;-67
2021/03/06 00:44:17;;;;;;;10.20;4.65;;;;;;;-1.34;77.14;103364.50;5259690;28;20512;-67
2021/03/06 00:46:49;;;;;;;12.77;4.72;;;;;;;-1.35;77.08;103367.94;5257234;28;20516;-67
2021/03/06 00:49:21;;;;;;;11.43;4.78;;;;;;;-1.42;76.50;103361.91;5259657;28;20047;-67
2021/03/06 00:51:53;;;;;;;13.05;4.85;;;;;;;-1.32;77.26;103363.69;5257990;28;20102;-67
2021/03/06 00:54:24;;;;;;;9.88;4.50;;;;;;;-1.37;76.57;103362.78;5257364;28;20028;-67
2021/03/06 00:56:55;;;;;;;8.48;4.60;;;;;;;-1.35;76.90;103366.22;5255744;28;20028;-67
2021/03/06 00:59:26;;;;;;;10.27;4.35;;;;;;;-1.46;76.71;103360.16;5260857;28;20036;-67
2021/03/06 01:01:58;;;;;;;12.30;4.40;;;;;;;-1.48;76.25;103354.16;5262582;28;20028;-68
2021/03/06 01:04:29;;;;;;;9.93;4.72;;;;;;;-1.56;77.19;103348.09;5257287;28;20132;-68
2021/03/06 01:07:00;;;;;;;14.85;4.93;;;;;;;-1.51;77.17;103341.28;5264219;28;20029;-67
2021/03/06 01:09:32;;;;;;;12.13;5.45;;;;;;;-1.40;76.63;103355.06;5260794;28;20111;-68
2021/03/06 01:12:03;;;;;;;10.65;4.78;;;;;;;-1.40;76.81;103354.19;5257066;28;20029;-67
2021/03/06 01:14:34;;;;;;;11.30;4.90;;;;;;;-1.52;76.32;103347.25;5258670;28;20032;-67
2021/03/06 01:17:06;;;;;;;10.70;4.97;;;;;;;-1.53;77.33;103342.97;5259230;28;20071;-68
2021/03/06 01:19:37;;;;;;;8.60;4.03;;;;;;;-1.54;77.50;103343.84;5258003;28;20549;-67
2021/03/06 01:22:08;;;;;;;11.88;4.53;;;;;;;-1.48;77.57;103347.31;5259076;28;20478;-67
2021/03/06 01:24:40;;;;;;;11.70;4.55;;;;;;;-1.56;76.53;103342.97;5256391;28;20021;-67
2021/03/06 01:27:11;;;;;;;9.75;4.47;;;;;;;-1.59;76.51;103346.41;5259089;28;20028;-67
2021/03/06 01:29:42;;;;;;;12.02;4.60;;;;;;;-1.65;77.20;103345.50;5260272;28;20057;-67
2021/03/06 01:32:13;;;;;;;8.95;4.43;;;;;;;-1.65;76.77;103348.91;5260820;28;20036;-66
2021/03/06 01:34:45;;;;;;;8.35;4.20;;;;;;;-1.69;77.48;103344.59;5242452;28;20024;-66
2021/03/06 01:37:17;;;;;;;10.82;4.65;;;;;;;-1.77;76.93;103339.41;5261938;28;20034;-67
2021/03/06 01:39:49;;;;;;;9.97;4.50;;;;;;;-1.77;76.97;103336.00;5257710;28;20120;-68
2021/03/06 01:42:21;;;;;;;13.20;5.03;;;;;;;-1.75;77.06;103340.28;5257828;28;20120;-67
2021/03/06 01:44:52;;;;;;;14.75;5.40;;;;;;;-1.80;77.34;103334.25;5260467;28;20475;-67
2021/03/06 01:47:24;;;;;;;11.75;4.75;;;;;;;-1.84;77.92;103335.09;5259944;28;20103;-67
2021/03/06 01:49:55;;;;;;;10.15;4.60;;;;;;;-1.85;77.51;103330.81;5240144;28;20035;-66
2021/03/06 01:52:27;;;;;;;9.55;4.13;;;;;;;-1.84;77.27;103331.66;5260817;28;20386;-67
2021/03/06 01:54:58;;;;;;;12.45;4.55;;;;;;;-1.94;77.66;103332.44;5262933;28;20563;-68
2021/03/06 01:57:30;;;;;;;14.18;4.93;;;;;;;-1.92;78.45;103334.19;5257895;28;20143;-67
2021/03/06 02:00:05;;;;;;;10.98;4.53;;;;;;;-1.96;77.87;103338.44;5241330;28;20051;-67
2021/03/06 02:02:37;;;;;;;9.82;4.40;;;;;;;-2.00;78.35;103344.41;5258850;28;20036;-68
2021/03/06 02:05:09;;;;;;;11.60;4.75;;;;;;;-2.04;78.14;103336.66;5263259;28;20132;-68
2021/03/06 02:07:41;;;;;;;14.20;4.50;;;;;;;-2.04;77.80;103334.09;5260772;28;20063;-68
2021/03/06 02:10:14;;;;;;;11.38;5.07;;;;;;;-2.01;78.93;103340.13;5260116;28;20473;-68
2021/03/06 02:13:18;;;;;;;9.45;4.50;;;;;;;-1.96;77.55;103337.56;5258793;28;20032;-67
2021/03/06 02:16:11;;;;;;;8.05;4.38;;;;;;;-1.94;76.58;103338.44;5259867;28;20244;-66
2021/03/06 02:19:11;;;;;;;11.50;4.10;;;;;;;-2.02;77.75;103343.50;5256602;28;20060;-67
2021/03/06 02:22:21;;;;;;;9.18;4.22;;;;;;;-1.98;77.93;103340.09;5216564;28;20056;-67
2021/03/06 02:25:24;;;;;;;10.73;4.55;;;;;;;-2.02;78.21;103338.38;5259389;28;20040;-67
2021/03/06 02:28:30;;;;;;;11.27;4.73;;;;;;;-2.03;78.02;103343.50;5256942;28;20414;-67
2021/03/06 02:31:04;;;;;;;11.82;4.97;;;;;;;-2.18;78.62;103348.53;5259219;28;20514;-68
2021/03/06 02:33:36;;;;;;;16.83;4.95;;;;;;;-2.20;78.37;103343.34;5237605;28;20032;-68
2021/03/06 02:36:11;;;;;;;7.90;4.93;;;;;;;-2.19;78.62;103339.97;5261698;28;20044;-68
2021/03/06 02:38:45;;;;;;;11.55;5.25;;;;;;;-2.35;79.05;103317.53;5249776;28;20041;-67
2021/03/06 02:41:17;;;;;;;;;;;;;;;-2.07;76.44;103328.91;5256368;28;20107;-67
2021/03/06 02:43:51;;;;;;;9.15;4.85;;;;;;;-2.24;78.54;103331.34;5251449;28;19917;-68
2021/03/06 02:46:25;;;;;;;12.23;4.75;;;;;;;-2.34;78.92;103320.16;5257282;28;20131;-68
2021/03/06 02:48:56;;;;;;;9.95;4.30;;;;;;;-2.28;78.35;103329.59;5257721;28;20109;-68
2021/03/06 02:51:36;;;;;;;9.60;4.80;;;;;;;-2.30;78.62;103321.88;5258369;28;20050;-68
2021/03/06 02:54:08;;;;;;;12.02;4.28;;;;;;;-2.36;78.80;103326.97;5260257;28;20028;-67
2021/03/06 02:56:39;;;;;;;10.25;4.40;;;;;;;-2.36;78.96;103323.53;5262809;28;20425;-67
2021/03/06 02:59:26;;;;;;;15.00;4.43;;;;;;;-2.34;79.33;103324.41;5256662;28;20033;-68
2021/03/06 03:02:13;;;;;;;9.35;4.38;;;;;;;-2.33;79.24;103319.28;5255317;28;20031;-67
2021/03/06 03:05:10;;;;;;;7.90;4.30;;;;;;;-2.24;79.34;103326.19;5259140;28;20032;-68
2021/03/06 03:07:41;;;;;;;7.95;4.03;;;;;;;-2.32;78.83;103331.28;5252797;28;20032;-68
2021/03/06 03:10:14;;;;;;;7.32;4.15;;;;;;;-2.33;79.15;103318.44;5260934;28;20021;-67
2021/03/06 03:13:01;;;;;;;10.77;4.13;;;;;;;-2.28;78.10;103322.75;5257335;28;20033;-67
2021/03/06 03:15:44;;;;;;;8.77;4.15;;;;;;;-2.33;78.91;103318.44;5257891;28;20072;-67
2021/03/06 03:18:22;;;;;;;10.27;4.60;;;;;;;-2.35;78.15;103318.44;5261645;28;20677;-68
2021/03/06 03:20:57;;;;;;;20.92;4.85;;;;;;;-2.42;78.03;103318.34;5261936;28;20147;-68
2021/03/06 03:23:46;;;;;;;9.68;4.30;;;;;;;-2.34;78.40;103316.72;5260986;28;20029;-67
2021/03/06 03:26:20;;;;;;;8.75;4.50;;;;;;;-2.41;79.04;103323.50;5265030;28;20039;-67
2021/03/06 03:28:52;;;;;;;13.90;4.40;;;;;;;-2.46;79.21;103322.59;5259448;28;20053;-68
2021/03/06 03:31:26;;;;;;;8.20;4.37;;;;;;;-2.40;79.11;103325.22;5263586;28;20060;-68
2021/03/06 03:33:57;;;;;;;13.20;4.20;;;;;;;-2.48;78.63;103326.84;5258586;28;20105;-68
2021/03/06 03:36:30;;;;;;;14.13;4.05;;;;;;;-2.42;78.24;103318.34;5264606;28;20040;-68
2021/03/06 03:39:03;;;;;;;9.48;3.85;;;;;;;-2.55;77.79;103317.38;5265467;28;20040;-66
2021/03/06 03:41:35;;;;;;;7.03;3.90;;;;;;;-2.64;78.04;103301.91;5260373;28;20134;-68
2021/03/06 03:44:08;;;;;;;11.80;4.57;;;;;;;-2.54;78.13;103316.50;5260425;28;20110;-68
2021/03/06 03:46:40;;;;;;;10.07;4.18;;;;;;;-2.60;78.35;103312.19;5263954;28;20046;-67
2021/03/06 03:49:14;;;;;;;9.75;5.10;;;;;;;-2.58;78.02;103310.50;5264963;28;20517;-67
2021/03/06 03:51:47;;;;;;;9.40;4.07;;;;;;;-2.61;78.65;103309.63;5261365;28;20622;-68
2021/03/06 03:54:18;;;;;;;9.88;4.55;;;;;;;-2.72;77.62;103307.81;5262198;28;20068;-66
2021/03/06 03:56:50;;;;;;;11.68;4.15;;;;;;;-2.70;77.86;103311.22;5257218;28;20643;-67
2021/03/06 03:59:21;;;;;;;11.32;4.18;;;;;;;-2.71;77.72;103316.38;5260917;28;20025;-67
2021/03/06 04:01:52;;;;;;;16.52;4.15;;;;;;;-2.73;78.04;103316.38;5257836;28;20067;-67
2021/03/06 04:04:26;;;;;;;9.80;4.20;;;;;;;-2.67;78.55;103309.56;5263648;28;20055;-68
2021/03/06 04:06:59;;;;;;;7.55;4.45;;;;;;;-2.61;78.58;103312.19;5260358;28;20028;-67
2021/03/06 04:09:31;;;;;;;15.98;4.07;;;;;;;-2.67;78.92;103314.69;5265641;28;20470;-67
2021/03/06 04:12:02;;;;;;;11.30;4.95;;;;;;;-2.72;79.36;103309.53;5260765;28;20081;-67
2021/03/06 04:14:34;;;;;;;9.55;4.00;;;;;;;-2.80;78.68;103306.88;5265284;28;20029;-68
2021/03/06 04:17:05;;;;;;;8.77;4.10;;;;;;;-2.71;78.69;103316.38;5261693;28;20599;-67
2021/03/06 04:19:36;;;;;;;7.70;3.95;;;;;;;-2.73;78.65;103315.47;5257618;28;20040;-67
2021/03/06 04:22:07;;;;;;;10.30;4.50;;;;;;;-2.78;78.34;103318.00;5261329;28;20063;-67
2021/03/06 04:24:39;;;;;;;10.73;3.92;;;;;;;-2.72;78.54;103318.06;5262342;28;20138;-68
2021/03/06 04:27:10;;;;;;;9.82;4.00;;;;;;;-2.74;78.47;103316.31;5259613;28;20032;-67
2021/03/06 04:29:41;;;;;;;8.32;4.18;;;;;;;-2.75;78.75;103330.00;5261039;28;20127;-67
2021/03/06 04:32:12;;;;;;;12.27;4.88;;;;;;;-2.78;79.16;103327.41;5243136;28;20025;-68
2021/03/06 04:34:44;;;;;;;15.30;4.55;;;;;;;-2.82;78.40;103330.78;5260078;28;20323;-68
2021/03/06 04:37:15;;;;;;;7.72;4.18;;;;;;;-2.84;78.46;103338.47;5262459;28;20025;-67
2021/03/06 04:39:46;;;;;;;9.38;4.65;;;;;;;-2.89;79.06;103340.09;5259394;28;20039;-67
2021/03/06 04:42:18;;;;;;;8.30;5.18;;;;;;;-2.89;79.24;103346.94;5257512;28;20063;-68
2021/03/06 04:44:50;;;;;;;8.02;4.10;;;;;;;-2.92;79.75;103347.75;5258486;28;20035;-68
2021/03/06 04:47:21;;;;;;;16.42;4.80;;;;;;;-2.94;79.46;103344.34;5259489;28;20029;-68
2021/03/06 04:49:52;;;;;;;11.10;4.63;;;;;;;-2.94;79.93;103346.91;5257815;28;20049;-68
2021/03/06 04:52:24;;;;;;;12.85;4.70;;;;;;;-3.00;79.83;103339.13;5262471;28;20024;-67
2021/03/06 04:54:55;;;;;;;9.10;4.20;;;;;;;-2.98;79.59;103350.28;5262824;28;20064;-67
2021/03/06 04:57:26;;;;;;;9.30;4.68;;;;;;;-2.98;80.00;103335.75;5260066;28;20466;-68
2021/03/06 04:59:59;;;;;;;9.13;5.00;;;;;;;-2.95;80.26;103346.03;5259640;28;20078;-68
2021/03/06 05:02:31;;;;;;;13.85;4.60;;;;;;;-2.96;79.22;103348.56;5251594;28;20021;-67
2021/03/06 05:05:05;;;;;;;11.38;4.75;;;;;;;-3.00;78.77;103351.94;5259716;28;20528;-66
2021/03/06 05:07:37;;;;;;;10.65;4.57;;;;;;;-3.03;79.14;103346.78;5254503;28;20038;-67
2021/03/06 05:10:09;;;;;;;8.00;4.45;;;;;;;-3.04;79.41;103357.88;5262951;28;20021;-68
2021/03/06 05:12:40;;;;;;;16.83;5.63;;;;;;;-3.07;78.94;103348.47;5244851;28;20107;-68
2021/03/06 05:15:11;;;;;;;13.82;5.18;;;;;;;-3.08;79.23;103348.44;5261263;28;20047;-67
2021/03/06 05:17:43;;;;;;;13.45;4.80;;;;;;;-3.10;79.63;103345.00;5258187;28;20034;-68
2021/03/06 05:20:14;;;;;;;7.05;4.72;;;;;;;-3.13;79.46;103352.66;5258166;28;20019;-68
2021/03/06 05:22:45;;;;;;;14.93;4.90;;;;;;;-3.09;79.98;103349.28;5261366;28;20036;-68
2021/03/06 05:25:16;;;;;;;10.32;4.53;;;;;;;-3.13;80.15;103350.09;5262080;28;20039;-67
2021/03/06 05:27:54;;;;;;;13.27;5.00;;;;;;;-3.08;79.90;103351.00;5264417;28;20063;-67
2021/03/06 05:30:25;;;;;;;11.25;5.28;;;;;;;-3.14;80.28;103348.34;5256773;28;20388;-67
2021/03/06 05:32:57;;;;;;;12.95;5.35;;;;;;;-3.17;80.47;103353.47;5255322;28;20082;-67
2021/03/06 05:35:28;;;;;;;9.88;5.40;;;;;;;-3.21;80.32;103357.69;5256069;28;20031;-67
2021/03/06 05:37:59;;;;;;;15.00;5.47;;;;;;;-3.25;80.14;103356.78;5260114;28;20112;-67
2021/03/06 05:40:36;;;;;;;12.68;5.50;;;;;;;-3.25;80.15;103367.03;5262165;28;20499;-67
2021/03/06 05:43:08;;;;;;;8.68;4.72;;;;;;;-3.25;80.48;103364.47;5261099;28;20036;-68
2021/03/06 05:45:43;;;;;;;8.98;4.75;;;;;;;-3.31;80.33;103366.09;5260824;28;20515;-67
2021/03/06 05:48:17;;;;;;;12.20;5.20;;;;;;;-3.30;80.51;103363.53;5260540;28;20397;-67
2021/03/06 05:50:50;;;;;;;10.70;5.32;;;;;;;-3.32;79.97;103366.94;5260867;28;20039;-68
2021/03/06 05:53:24;;;;;;;9.93;5.32;;;;;;;-3.37;80.36;103356.63;5240685;28;20486;-67
2021/03/06 05:55:58;;;;;;;12.13;5.60;;;;;;;-3.36;80.69;103357.47;5254450;28;20162;-68
2021/03/06 05:58:30;;;;;;;11.30;5.13;;;;;;;-3.43;80.88;103359.94;5258012;28;20029;-67
2021/03/06 06:01:03;;;;;;;9.05;4.40;;;;;;;-3.44;81.21;103354.81;5259038;28;20033;-67
2021/03/06 06:03:34;;;;;;;8.43;4.78;;;;;;;-3.45;81.43;103368.44;5253003;28;20436;-67
2021/03/06 06:06:06;;;;;;;12.52;5.07;;;;;;;-3.50;81.24;103352.16;5261580;28;20026;-67
2021/03/06 06:08:37;;;;;;;9.50;4.57;;;;;;;-3.49;80.99;103364.97;5259678;28;20032;-67
2021/03/06 06:11:09;;;;;;;9.88;4.40;;;;;;;-3.49;80.69;103371.81;5259632;28;20040;-67
2021/03/06 06:13:40;;;;;;;8.38;4.20;;;;;;;-3.53;80.20;103367.47;5263437;28;20481;-68
2021/03/06 06:16:12;;;;;;;9.00;4.32;;;;;;;-3.51;80.50;103368.38;5259058;28;20393;-67
2021/03/06 06:18:44;;;;;;;9.45;4.60;;;;;;;-3.49;80.32;103371.81;5255025;28;20052;-67
2021/03/06 06:21:54;;;;;;;11.15;4.55;;;;;;;-3.48;80.49;103361.59;5258450;28;20082;-67
2021/03/06 06:24:26;;;;;;;9.20;4.85;;;;;;;-3.53;81.56;103375.16;5259694;28;20048;-66
2021/03/06 06:27:00;;;;;;;9.93;4.57;;;;;;;-3.49;80.93;103382.91;5253812;28;20036;-67
2021/03/06 06:29:34;;;;;;;;;;;;;;;-3.29;79.31;103388.34;5260100;28;20052;-68
2021/03/06 06:32:06;;;;;;;;;;;;;;;-3.29;79.61;103385.78;5261199;28;20167;-67
2021/03/06 06:34:39;;;;;;;12.65;4.63;;;;;;;-3.43;80.61;103388.16;5257947;28;20362;-67
2021/03/06 06:37:12;;;;;;;14.10;6.10;;;;;;;-3.46;80.62;103387.25;5252160;28;20033;-67
2021/03/06 06:39:43;;;;;;;;;;;;;;;-3.25;78.75;103390.09;5257897;28;20402;-67
2021/03/06 06:42:15;;;;;;;13.57;5.20;;;;;;;-3.39;80.52;103385.63;5252791;28;19924;-67
2021/03/06 06:44:54;;;;;;;12.23;6.00;;;;;;;-3.36;80.44;103383.97;5256467;28;20362;-67
2021/03/06 06:47:40;;;;;;;10.70;5.15;;;;;;;-3.36;80.84;103385.69;5257971;28;20051;-67
2021/03/06 06:50:13;;;;;;;11.20;5.45;;;;;;;-3.37;81.02;103387.38;5238381;28;20032;-68
2021/03/06 06:52:47;;;;;;;16.02;5.65;;;;;;;-3.36;81.59;103385.69;5263544;28;20033;-69
2021/03/06 06:55:18;;;;;;;13.95;5.35;;;;;;;-3.35;81.75;103395.09;5264018;28;20094;-68
2021/03/06 06:57:51;;;;;;;12.45;5.70;;;;;;;-3.39;81.43;103377.94;5242567;28;20153;-69
2021/03/06 07:00:22;;;;;;;8.98;4.60;;;;;;;-3.29;81.03;103395.19;5262758;28;20557;-68
2021/03/06 07:02:56;;;;;;;13.00;6.22;;;;;;;-3.24;81.56;103408.91;5253667;28;20069;-69
2021/03/06 07:05:33;;;;;;;15.40;6.22;;;;;;;-3.23;81.56;103405.50;5241603;28;20032;-68
2021/03/06 07:08:07;;;;;;;10.43;6.45;;;;;;;-3.18;82.08;103406.44;5261107;28;20077;-70
2021/03/06 07:10:40;;;;;;;12.10;6.43;;;;;;;-3.16;81.82;103415.00;5261108;28;20020;-70
2021/03/06 07:13:11;;;;;;;11.90;6.18;;;;;;;-3.11;81.36;103417.63;5261161;28;20028;-69
2021/03/06 07:15:50;;;;;;;14.65;5.88;;;;;;;-3.07;81.20;103416.81;5260180;28;20024;-68
2021/03/06 07:18:21;;;;;;;15.52;5.80;;;;;;;-2.94;81.87;103422.13;5263598;28;20124;-67
2021/03/06 07:20:55;;;;;;;16.95;6.18;;;;;;;-2.97;82.26;103427.22;5259935;28;20060;-67
2021/03/06 07:23:27;;;;;;;12.32;5.68;;;;;;;-2.92;82.28;103431.53;5264059;28;20069;-67
2021/03/06 07:26:01;;;;;;;12.15;4.97;;;;;;;-2.91;82.55;103433.28;5260070;28;20397;-68
2021/03/06 07:28:32;;;;;;;13.70;5.80;;;;;;;-2.83;82.66;103436.81;5263036;28;20040;-67
2021/03/06 07:31:04;;;;;;;12.13;5.38;;;;;;;-2.81;82.05;103425.72;5258131;28;20045;-68
2021/03/06 07:33:37;;;;;;;12.00;5.45;;;;;;;-2.71;82.00;103436.97;5261374;28;20036;-67
2021/03/06 07:36:09;;;;;;;;;;;;;;;-2.54;81.14;103442.28;5243090;28;20345;-68
2021/03/06 07:38:40;;;;;;;8.68;5.63;;;;;;;-2.54;81.83;103439.72;5259571;28;20440;-68
2021/03/06 07:41:13;;;;;;;12.10;5.25;;;;;;;-2.55;81.65;103450.81;5259993;28;20083;-68
2021/03/06 07:43:47;;;;;;;11.27;5.78;;;;;;;-2.49;82.05;103449.19;5243391;28;20056;-68
2021/03/06 07:46:19;;;;;;;;;;;;;;;-2.35;80.49;103446.78;5262147;28;20067;-67
2021/03/06 07:48:53;;;;;;;11.50;6.47;;;;;;;-2.36;81.97;103452.75;5261568;28;19939;-67
2021/03/06 07:51:26;;;;;;;11.50;6.13;;;;;;;-2.38;82.40;103444.19;5259917;28;20406;-67
2021/03/06 07:53:58;;;;;;;33.90;8.05;;;;;;;-2.22;82.74;103450.34;5263156;28;20025;-67
2021/03/06 07:56:29;;;;;;;11.27;7.63;;;;;;;-2.09;82.54;103447.03;5259511;28;20086;-67
2021/03/06 07:59:01;;;;;;;21.58;7.63;;;;;;;-1.94;83.92;103450.59;5261427;28;20099;-67
2021/03/06 08:01:34;;;;;;;17.13;8.95;;;;;;;-1.86;83.16;103448.97;5260282;28;20288;-67
2021/03/06 08:04:05;;;;;;;15.00;6.78;;;;;;;-1.81;82.89;103440.47;5256953;28;20037;-68
2021/03/06 08:06:36;;;;;;;18.35;8.52;;;;;;;-1.63;83.44;103441.44;5257286;28;20035;-67
2021/03/06 08:09:10;;;;;;;16.83;8.35;;;;;;;-1.54;82.66;103446.66;5262447;28;20028;-68
2021/03/06 08:11:44;;;;;;;18.02;8.38;;;;;;;-1.44;82.47;103435.59;5257876;28;20274;-67
2021/03/06 08:14:37;;;;;;;18.05;8.82;;;;;;;-1.28;81.98;103436.56;5256121;28;20082;-67
2021/03/06 08:17:34;;;;;;;15.68;8.63;;;;;;;-1.15;81.27;103437.50;5256355;28;20037;-68
2021/03/06 08:20:22;;;;;;;20.70;9.70;;;;;;;-1.07;81.70;103439.25;5264046;28;20055;-68
2021/03/06 08:23:19;;;;;;;22.75;10.15;;;;;;;-0.96;80.97;103441.03;5258962;28;20402;-68
2021/03/06 08:26:19;;;;;;;19.80;10.25;;;;;;;-0.81;80.64;103438.53;5260696;28;20025;-68
2021/03/06 08:28:50;;;;;;;20.40;9.65;;;;;;;-0.74;81.09;103437.69;5256667;28;20041;-68
2021/03/06 08:31:38;;;;;;;16.63;9.52;;;;;;;-0.59;80.57;103439.47;5259331;28;20044;-67
2021/03/06 08:34:37;;;;;;;23.08;8.48;;;;;;;-0.49;79.90;103430.94;5262812;28;20560;-67
2021/03/06 08:39:52;;;;;;;25.42;10.13;;;;;;;-0.29;79.64;103446.44;5255359;28;20258;-68
2021/03/06 08:42:32;;;;;;;21.02;7.70;;;;;;;-0.21;78.82;103437.00;5253287;28;20060;-67
2021/03/06 08:45:06;;;;;;;29.33;9.00;;;;;;;-0.17;78.91;103435.28;5260274;28;20072;-68
2021/03/06 08:47:40;;;;;;;22.80;7.88;;;;;;;-0.12;79.60;103437.00;5260061;28;20039;-67
2021/03/06 08:50:14;;;;;;;19.50;8.55;;;;;;;-0.02;78.74;103432.72;5260161;28;20290;-67
2021/03/06 08:52:58;;;;;;;17.77;8.00;;;;;;;0.06;78.33;103435.31;5262545;28;20025;-69
2021/03/06 08:55:37;;;;;;;14.27;7.53;;;;;;;0.21;78.12;103441.31;5261151;28;20036;-69
2021/03/06 08:58:12;;;;;;;16.70;6.40;;;;;;;0.29;77.19;103425.84;5259734;28;20024;-69
2021/03/06 09:01:09;;;;;;;14.65;6.78;;;;;;;0.40;77.71;103423.28;5262524;28;20048;-67
2021/03/06 09:03:40;;;;;;;18.00;7.03;;;;;;;0.55;76.80;103425.84;5255726;28;20131;-67
2021/03/06 09:06:11;;;;;;;18.30;7.75;;;;;;;0.57;77.25;103424.13;5260438;28;20024;-67
2021/03/06 09:08:53;;;;;;;15.20;6.10;;;;;;;0.68;77.01;103432.72;5259080;28;20505;-68
2021/03/06 09:11:25;;;;;;;11.38;5.10;;;;;;;0.83;76.15;103436.94;5262672;28;20024;-68
2021/03/06 09:13:56;;;;;;;14.00;5.80;;;;;;;0.90;76.61;103437.81;5256899;28;20437;-67
2021/03/06 09:16:27;;;;;;;11.00;6.13;;;;;;;1.02;75.85;103442.06;5263593;28;20037;-68
2021/03/06 09:18:58;;;;;;;14.38;6.50;;;;;;;1.14;74.78;103431.72;5256883;28;20040;-67
2021/03/06 09:21:30;;;;;;;15.35;5.40;;;;;;;1.27;74.35;103438.53;5260326;28;20029;-67
2021/03/06 09:24:02;;;;;;;12.65;5.82;;;;;;;1.34;74.04;103436.78;5259943;28;20029;-67
2021/03/06 09:26:35;;;;;;;17.23;4.93;;;;;;;1.52;72.77;103428.97;5256710;28;20045;-67
2021/03/06 09:29:08;;;;;;;14.40;5.05;;;;;;;1.64;73.85;103430.59;5261925;28;20503;-68
2021/03/06 09:31:40;;;;;;;13.32;4.93;;;;;;;1.73;73.54;103427.09;5259432;28;20033;-67
2021/03/06 09:34:11;;;;;;;15.00;5.13;;;;;;;1.82;72.97;103424.44;5259678;28;20468;-67
2021/03/06 09:36:42;;;;;;;13.93;5.10;;;;;;;1.89;72.64;103416.63;5263940;28;20423;-67
2021/03/06 09:39:13;;;;;;;14.82;5.60;;;;;;;2.10;72.18;103425.13;5260024;28;20512;-66
2021/03/06 09:41:45;;;;;;;9.30;5.65;;;;;;;2.23;71.29;103416.38;5258813;28;20098;-66
2021/03/06 09:44:17;;;;;;;11.02;4.40;;;;;;;2.35;70.22;103420.56;5255698;28;20032;-68
2021/03/06 09:46:48;;;;;;;12.20;4.43;;;;;;;2.61;70.50;103420.34;5248843;28;20028;-67
2021/03/06 09:49:20;;;;;;;12.52;4.82;;;;;;;2.56;70.31;103422.97;5255460;28;20482;-67
2021/03/06 09:51:54;;;;;;;13.48;4.35;;;;;;;2.65;70.42;103417.72;5258965;28;20024;-67
2021/03/06 09:54:27;;;;;;;12.35;4.47;;;;;;;2.60;69.52;103416.03;5255404;28;20063;-67
2021/03/06 09:57:00;;;;;;;12.77;3.47;;;;;;;2.70;68.69;103424.56;5241093;28;20082;-68
2021/03/06 09:59:40;;;;;;;9.70;3.50;;;;;;;2.79;68.52;103419.28;5250185;28;20031;-66
2021/03/06 10:02:11;;;;;;;11.05;3.60;;;;;;;2.92;68.09;103423.47;5252792;28;20048;-68
2021/03/06 10:04:46;;;;;;;11.02;3.70;;;;;;;3.02;69.44;103424.22;5250625;28;20417;-67
2021/03/06 10:07:20;;;;;;;12.88;4.30;;;;;;;3.13;68.10;103422.34;5251311;28;20395;-67
2021/03/06 10:09:52;;;;;;;12.07;3.80;;;;;;;3.31;68.00;103419.53;5253726;28;20103;-67
2021/03/06 10:12:23;;;;;;;13.80;4.22;;;;;;;3.41;66.96;103425.47;5256267;28;20090;-68
2021/03/06 10:14:56;;;;;;;9.02;3.60;;;;;;;3.46;66.37;103418.47;5257199;28;20169;-68
2021/03/06 10:17:27;;;;;;;7.50;2.80;;;;;;;3.44;65.24;103430.56;5262237;28;20044;-68
2021/03/06 10:19:59;;;;;;;10.98;3.33;;;;;;;3.54;65.24;103427.00;5259378;28;20291;-67
2021/03/06 10:22:46;;;;;;;13.10;2.67;;;;;;;3.62;62.93;103421.69;5257860;28;20090;-67
2021/03/06 10:25:27;;;;;;;9.32;2.78;;;;;;;3.64;62.30;103422.56;5250868;28;20094;-68
2021/03/06 10:28:08;;;;;;;7.55;2.60;;;;;;;3.81;63.48;103409.31;5253146;28;20645;-68
2021/03/06 10:30:41;;;;;;;8.52;2.80;;;;;;;3.83;62.16;103415.34;5252792;28;20135;-67
2021/03/06 10:33:22;;;;;;;7.38;2.05;;;;;;;3.86;62.03;103405.78;5238020;28;20033;-67
2021/03/06 10:35:55;;;;;;;6.40;2.35;;;;;;;3.96;60.94;103411.69;5242426;28;20438;-67
2021/03/06 10:38:31;;;;;;;8.35;2.55;;;;;;;4.06;61.69;103402.03;5254688;28;20040;-68
2021/03/06 10:41:04;;;;;;;7.88;2.45;;;;;;;4.04;60.82;103402.03;5258409;28;20040;-67
2021/03/06 10:43:40;;;;;;;6.85;2.45;;;;;;;4.00;60.56;103396.94;5257159;28;20873;-67
2021/03/06 10:46:19;;;;;;;7.93;2.25;;;;;;;3.94;59.92;103399.59;5257645;28;20037;-68
2021/03/06 10:49:02;;;;;;;6.85;2.67;;;;;;;3.86;59.59;103392.84;5240204;28;20052;-67
2021/03/06 10:51:45;;;;;;;7.85;2.65;;;;;;;3.68;60.89;103387.94;5257015;28;20025;-68
2021/03/06 10:54:18;;;;;;;7.40;2.00;;;;;;;3.81;59.29;103396.34;5252328;28;20090;-67
2021/03/06 10:57:06;;;;;;;7.75;1.73;;;;;;;3.85;59.43;103400.63;5233179;28;20039;-67
2021/03/06 10:59:37;;;;;;;12.38;3.10;;;;;;;3.76;59.46;103391.25;5260030;28;20029;-69
2021/03/06 11:02:29;;;;;;;6.32;1.98;;;;;;;3.84;59.28;103385.94;5260161;28;20246;-69
2021/03/06 11:05:27;;;;;;;5.13;1.55;;;;;;;3.86;58.91;103387.66;5254125;28;20090;-68
2021/03/06 11:08:14;;;;;;;6.57;1.60;;;;;;;4.02;57.62;103384.81;5253124;28;20048;-68
2021/03/06 11:10:48;;;;;;;7.22;1.70;;;;;;;4.10;57.37;103380.34;5256082;28;20028;-67
2021/03/06 11:13:20;;;;;;;5.30;1.70;;;;;;;4.07;57.13;103372.59;5250804;28;20037;-69
2021/03/06 11:15:53;;;;;;;5.55;1.45;;;;;;;4.15;57.01;103376.75;5256257;28;20055;-68
2021/03/06 11:18:25;;;;;;;6.70;2.05;;;;;;;4.14;55.93;103377.66;5256922;28;20104;-69
2021/03/06 11:20:56;;;;;;;7.60;2.08;;;;;;;4.13;56.11;103380.28;5260601;28;20033;-69
2021/03/06 11:23:27;;;;;;;5.25;1.92;;;;;;;4.22;56.05;103377.53;5259826;28;20039;-69
2021/03/06 11:25:59;;;;;;;4.65;1.70;;;;;;;4.42;52.98;103377.16;5255304;28;20111;-67
2021/03/06 11:28:33;;;;;;;5.38;1.88;;;;;;;4.66;55.29;103368.06;5246256;28;20079;-68
2021/03/06 11:31:05;;;;;;;3.95;1.38;;;;;;;4.83;53.89;103367.72;5256677;28;20047;-66
2021/03/06 11:33:36;;;;;;;9.00;2.40;;;;;;;4.79;53.31;103363.47;5260166;28;20036;-69
2021/03/06 11:36:07;;;;;;;3.42;1.77;;;;;;;4.74;54.26;103365.31;5260221;28;20040;-70
2021/03/06 11:38:38;;;;;;;5.20;1.50;;;;;;;4.59;53.99;103345.72;5260937;28;20035;-68
2021/03/06 11:41:10;;;;;;;7.35;2.13;;;;;;;4.62;54.05;103353.41;5269534;28;20037;-69
2021/03/06 11:43:41;;;;;;;6.93;1.60;;;;;;;4.65;55.20;103353.34;5260431;28;20059;-69
2021/03/06 11:46:12;;;;;;;6.60;1.65;;;;;;;4.72;52.83;103348.91;5255748;28;20036;-68
2021/03/06 11:48:44;;;;;;;3.53;1.55;;;;;;;4.81;52.27;103353.91;5255206;28;20020;-68
2021/03/06 11:51:15;;;;;;;4.50;1.83;;;;;;;4.85;53.10;103350.38;5255681;28;20028;-68
2021/03/06 11:53:46;;;;;;;3.17;1.48;;;;;;;4.77;52.72;103353.13;5258491;28;20473;-69
2021/03/06 11:56:18;;;;;;;5.93;1.35;;;;;;;4.71;52.88;103349.81;5257223;28;20970;-69
2021/03/06 11:58:49;;;;;;;7.53;1.77;;;;;;;4.55;54.02;103344.06;5259040;28;20656;-68
2021/03/06 12:01:20;;;;;;;8.82;2.42;;;;;;;4.47;53.85;103335.53;5255706;28;20028;-68